首页
METAR-TAF:

METAR-TAF

机场 :

英迪拉·甘地国际机场

新德里, 印度

纬度: 28-34N, 经度: 077-07E, 海拔: 220米

当前天气观测

该预报发布于29分钟前的02:00 UTC
风速3节,风向
温度 29°C
湿度 84%
气压 1001 hPa
能見度: 3500
少量云层高于3500英尺
少量云层高于3500英尺, 积雨云.
散云层高于10000英尺
轻雾

METAR: VIDP 190200Z 08003KT 3500 BR FEW035 FEW035CB SCT100 29/26 Q1001 NOSIG

时间: 07:59 (02:29 UTC)

预报

该预报发布于3小时和29分钟前的23:00 UTC
预报有效从19日的 00点(UTC)到 20日的 06点(UTC)
风速3节,风向东转东北
能見度: 3000
少量云层高于3500英尺
散云层高于10000英尺
轻雾
成为
从 19日的 05点(UTC)到 19日的 07点(UTC)
风速8节,风向西转西北
能見度: 4000
短暂存在
从 19日的 09点(UTC)到 19日的 14点(UTC)
能見度: 1500
少量云层高于3500英尺, 积雨云.
多云层高于9000英尺
雷暴, 雨
成为
从 19日的 15点(UTC)到 19日的 17点(UTC)
风速5节,风向西转西南
能見度: 3000
轻雾
短暂存在
从 19日的 22点(UTC)到 20日的 03点(UTC)
能見度: 1500
少量云层高于3500英尺, 积雨云.
多云层高于9000英尺
雷暴, 雨
成为
从 20日的 05点(UTC)到 20日的 06点(UTC)
风速6节,风向西
能見度: 4000
少量云层高于4000英尺
散云层高于10000英尺

TAF: VIDP 182300Z 1900/2006 06003KT 3000 BR FEW035 SCT100 BECMG 1905/1907 29008KT 4000 HZ TEMPO 1909/1914 1500 TSRA FEW035CB BKN090 BECMG 1915/1917 24005KT 3000 BR TEMPO 1922/2003 1500 TSRA FEW035CB BKN090 BECMG 2005/2006 28006KT 4000 HZ FEW040 SCT100

超过4000个机场的气象观测和天气预报(METAR&TAF报告)。

可查询的气象台以黄色和红色小点在地图上表示。

将鼠标移到小点上方,可查看气象台名称。

然后点击查看天气观测和预报。

如需切换地图:点击带黑十字的绿色按钮放大地图;点击带横线的绿色按钮缩小地图;或者点击绿色箭头查看邻近地区的地图。


METAR-TAF: